Aérodrome :
LOGIN :

S'inscrire | Disclaimer

   EN    FR    IT 

 










Légende :    VFR   VFR Marginal   IFR   IFR Intensif   IFR Très Intensif
Visi : 
Plafond : 
>= 8 km
>= 3000ft
5 à 8 km
1000 à 3000 ft
1500m à 5 km
500 à 1000 ft
800 à 1500m
200 à 500 ft
< 800m
< 200 ft
Symboles :   Orages  Brouillard  Fortes neiges  Fortes précipitations  Vent > 20 kt
SIGMETs :   Divers  Orages  Givrage  Turbulence  Onde Orograph.  Cendres Volcan.






- Altitude de l'aérodrome : 144 ft
- Code IATA : PGF


LFMP - Perpignan

DERNIER METAR :
  • 091030Z AUTO 31018KT CAVOK 13/M01 Q1017 BECMG 31020G35KT

METARs EXPIRÉS :
  • 091000Z AUTO 31017G29KT 270V340 CAVOK 13/00 Q1017 NOSIG
  • 090930Z AUTO 32016G27KT CAVOK 12/00 Q1017 NOSIG
  • 090900Z AUTO 31015KT 280V340 CAVOK 12/01 Q1017 BECMG 31020G35KT
  • 090830Z AUTO 30012G22KT 270V330 CAVOK 12/01 Q1017 NOSIG
  • 090800Z AUTO 32010KT 280V360 CAVOK 11/01 Q1017 NOSIG

TAF TAF LFMP
Valide du 09 à 09h jusqu'au 10 à 09h UTC


090800Z 0909/1009 32010KT CAVOK
BECMG 0909/0911 31020G35KT
BECMG 1002/1005 31010KT
ATIS : +33 4 68 63 75 12



MET'MAP, la Météo Aéronautique d'un coup d'oeil ! - Copyright ORBIFLY Décembre 2007 - Disclaimer

ORBIFLY MET'MAP TEAM :

Programmation & Développement : Alexandra Zaïnal
Sur une idée originale de : Baudouin d'Aumeries
Assistance à la programmation : Marc-Olivier Méhu
Soutien technique & logistique : Manuel Goepfert

Contact : metmap@orbifly.com




SOURCES & CREDITS :

   NOAA